sensor_id;sensor_type;location;lat;lon;timestamp;P1;durP1;ratioP1;P2;durP2;ratioP2
77544;SDS011;66672;50.328;7.610;2023-08-06T00:00:05;5.68;;;3.00;;
77544;SDS011;66672;50.328;7.610;2023-08-06T00:02:31;4.32;;;2.80;;
77544;SDS011;66672;50.328;7.610;2023-08-06T00:04:56;5.05;;;2.80;;
77544;SDS011;66672;50.328;7.610;2023-08-06T00:07:21;6.07;;;3.50;;
77544;SDS011;66672;50.328;7.610;2023-08-06T00:09:46;4.78;;;2.90;;
77544;SDS011;66672;50.328;7.610;2023-08-06T00:12:11;5.88;;;3.40;;
77544;SDS011;66672;50.328;7.610;2023-08-06T00:14:37;5.80;;;3.13;;
77544;SDS011;66672;50.328;7.610;2023-08-06T00:17:02;5.85;;;2.97;;
77544;SDS011;66672;50.328;7.610;2023-08-06T00:19:27;6.32;;;2.80;;
77544;SDS011;66672;50.328;7.610;2023-08-06T00:21:52;5.35;;;2.80;;
77544;SDS011;66672;50.328;7.610;2023-08-06T00:24:17;5.47;;;2.80;;
77544;SDS011;66672;50.328;7.610;2023-08-06T00:26:43;5.55;;;3.00;;
77544;SDS011;66672;50.328;7.610;2023-08-06T00:29:08;4.60;;;2.80;;
77544;SDS011;66672;50.328;7.610;2023-08-06T00:31:33;5.45;;;2.90;;
77544;SDS011;66672;50.328;7.610;2023-08-06T00:33:58;5.00;;;2.80;;
77544;SDS011;66672;50.328;7.610;2023-08-06T00:36:23;9.35;;;3.78;;
77544;SDS011;66672;50.328;7.610;2023-08-06T00:38:49;7.68;;;3.10;;
77544;SDS011;66672;50.328;7.610;2023-08-06T00:41:14;5.38;;;3.08;;
77544;SDS011;66672;50.328;7.610;2023-08-06T00:43:39;8.20;;;3.53;;
77544;SDS011;66672;50.328;7.610;2023-08-06T00:46:04;6.20;;;2.88;;
77544;SDS011;66672;50.328;7.610;2023-08-06T00:48:30;7.05;;;3.20;;
77544;SDS011;66672;50.328;7.610;2023-08-06T00:50:55;7.70;;;3.08;;
77544;SDS011;66672;50.328;7.610;2023-08-06T00:53:20;5.38;;;3.08;;
77544;SDS011;66672;50.328;7.610;2023-08-06T00:55:46;5.95;;;3.13;;
77544;SDS011;66672;50.328;7.610;2023-08-06T00:58:11;5.53;;;3.30;;
77544;SDS011;66672;50.328;7.610;2023-08-06T01:00:37;5.95;;;3.05;;
77544;SDS011;66672;50.328;7.610;2023-08-06T01:03:02;5.72;;;3.38;;
77544;SDS011;66672;50.328;7.610;2023-08-06T01:05:28;5.22;;;2.97;;
77544;SDS011;66672;50.328;7.610;2023-08-06T01:13:24;7.13;;;3.10;;
77544;SDS011;66672;50.328;7.610;2023-08-06T01:15:54;6.63;;;2.95;;
77544;SDS011;66672;50.328;7.610;2023-08-06T01:18:22;7.32;;;3.83;;
77544;SDS011;66672;50.328;7.610;2023-08-06T01:20:47;5.35;;;3.20;;
77544;SDS011;66672;50.328;7.610;2023-08-06T01:23:12;5.50;;;3.08;;
77544;SDS011;66672;50.328;7.610;2023-08-06T01:25:40;7.07;;;2.83;;
77544;SDS011;66672;50.328;7.610;2023-08-06T01:28:15;5.93;;;2.85;;
77544;SDS011;66672;50.328;7.610;2023-08-06T01:30:43;7.72;;;2.78;;
77544;SDS011;66672;50.328;7.610;2023-08-06T01:33:10;6.50;;;2.65;;
77544;SDS011;66672;50.328;7.610;2023-08-06T01:35:37;5.38;;;2.97;;
77544;SDS011;66672;50.328;7.610;2023-08-06T01:38:03;5.18;;;3.03;;
77544;SDS011;66672;50.328;7.610;2023-08-06T01:40:28;5.72;;;2.80;;
77544;SDS011;66672;50.328;7.610;2023-08-06T01:42:54;4.55;;;2.72;;
77544;SDS011;66672;50.328;7.610;2023-08-06T01:45:19;7.38;;;3.00;;
77544;SDS011;66672;50.328;7.610;2023-08-06T01:47:45;6.07;;;2.75;;
77544;SDS011;66672;50.328;7.610;2023-08-06T01:50:10;5.30;;;2.58;;
77544;SDS011;66672;50.328;7.610;2023-08-06T01:52:35;5.70;;;3.00;;
77544;SDS011;66672;50.328;7.610;2023-08-06T01:55:00;4.75;;;2.80;;
77544;SDS011;66672;50.328;7.610;2023-08-06T01:57:25;3.97;;;2.38;;
77544;SDS011;66672;50.328;7.610;2023-08-06T01:59:50;7.47;;;2.60;;
77544;SDS011;66672;50.328;7.610;2023-08-06T02:02:16;7.85;;;2.78;;
77544;SDS011;66672;50.328;7.610;2023-08-06T02:04:41;4.40;;;2.40;;
77544;SDS011;66672;50.328;7.610;2023-08-06T02:07:06;5.57;;;2.33;;
77544;SDS011;66672;50.328;7.610;2023-08-06T02:09:31;4.38;;;2.05;;
77544;SDS011;66672;50.328;7.610;2023-08-06T02:11:56;4.75;;;1.85;;
77544;SDS011;66672;50.328;7.610;2023-08-06T02:14:22;5.05;;;2.35;;
77544;SDS011;66672;50.328;7.610;2023-08-06T02:16:47;4.70;;;2.30;;
77544;SDS011;66672;50.328;7.610;2023-08-06T02:19:12;5.55;;;2.55;;
77544;SDS011;66672;50.328;7.610;2023-08-06T02:21:37;4.82;;;2.20;;
77544;SDS011;66672;50.328;7.610;2023-08-06T02:24:03;6.60;;;2.13;;
77544;SDS011;66672;50.328;7.610;2023-08-06T02:26:28;11.40;;;2.50;;
77544;SDS011;66672;50.328;7.610;2023-08-06T02:28:53;4.18;;;2.28;;
77544;SDS011;66672;50.328;7.610;2023-08-06T02:31:18;7.22;;;2.80;;
77544;SDS011;66672;50.328;7.610;2023-08-06T02:33:43;4.25;;;2.08;;
77544;SDS011;66672;50.328;7.610;2023-08-06T02:36:09;3.63;;;1.92;;
77544;SDS011;66672;50.328;7.610;2023-08-06T02:38:34;3.42;;;2.00;;
77544;SDS011;66672;50.328;7.610;2023-08-06T02:41:01;5.45;;;2.08;;
77544;SDS011;66672;50.328;7.610;2023-08-06T02:43:27;3.40;;;1.77;;
77544;SDS011;66672;50.328;7.610;2023-08-06T02:45:52;3.75;;;1.90;;
77544;SDS011;66672;50.328;7.610;2023-08-06T02:48:17;5.70;;;1.92;;
77544;SDS011;66672;50.328;7.610;2023-08-06T02:50:43;4.22;;;2.05;;
77544;SDS011;66672;50.328;7.610;2023-08-06T02:53:08;4.22;;;1.70;;
77544;SDS011;66672;50.328;7.610;2023-08-06T02:55:34;4.82;;;1.92;;
77544;SDS011;66672;50.328;7.610;2023-08-06T02:57:59;6.07;;;1.80;;
77544;SDS011;66672;50.328;7.610;2023-08-06T03:00:25;3.90;;;1.60;;
77544;SDS011;66672;50.328;7.610;2023-08-06T03:02:50;3.65;;;1.67;;
77544;SDS011;66672;50.328;7.610;2023-08-06T03:05:15;3.00;;;1.60;;
77544;SDS011;66672;50.328;7.610;2023-08-06T03:07:40;6.75;;;2.08;;
77544;SDS011;66672;50.328;7.610;2023-08-06T03:10:06;4.05;;;2.00;;
77544;SDS011;66672;50.328;7.610;2023-08-06T03:12:31;5.15;;;2.05;;
77544;SDS011;66672;50.328;7.610;2023-08-06T03:14:56;5.20;;;2.20;;
77544;SDS011;66672;50.328;7.610;2023-08-06T03:17:21;4.30;;;1.92;;
77544;SDS011;66672;50.328;7.610;2023-08-06T03:19:46;4.18;;;2.00;;
77544;SDS011;66672;50.328;7.610;2023-08-06T03:22:12;4.97;;;2.00;;
77544;SDS011;66672;50.328;7.610;2023-08-06T03:24:37;6.38;;;2.28;;
77544;SDS011;66672;50.328;7.610;2023-08-06T03:27:02;4.70;;;2.00;;
77544;SDS011;66672;50.328;7.610;2023-08-06T03:29:27;3.42;;;1.75;;
77544;SDS011;66672;50.328;7.610;2023-08-06T03:31:52;3.85;;;1.85;;
77544;SDS011;66672;50.328;7.610;2023-08-06T03:34:18;4.05;;;2.00;;
77544;SDS011;66672;50.328;7.610;2023-08-06T03:36:43;3.92;;;1.70;;
77544;SDS011;66672;50.328;7.610;2023-08-06T03:39:08;3.67;;;1.90;;
77544;SDS011;66672;50.328;7.610;2023-08-06T03:41:33;5.22;;;2.17;;
77544;SDS011;66672;50.328;7.610;2023-08-06T03:43:59;6.00;;;2.40;;
77544;SDS011;66672;50.328;7.610;2023-08-06T03:46:25;5.20;;;2.53;;
77544;SDS011;66672;50.328;7.610;2023-08-06T03:48:51;6.00;;;2.08;;
77544;SDS011;66672;50.328;7.610;2023-08-06T03:51:16;5.97;;;2.67;;
77544;SDS011;66672;50.328;7.610;2023-08-06T03:53:41;5.25;;;2.70;;
77544;SDS011;66672;50.328;7.610;2023-08-06T03:56:06;5.35;;;2.60;;
77544;SDS011;66672;50.328;7.610;2023-08-06T03:58:31;4.90;;;2.30;;
77544;SDS011;66672;50.328;7.610;2023-08-06T04:00:57;3.88;;;2.05;;
77544;SDS011;66672;50.328;7.610;2023-08-06T04:03:22;3.75;;;2.22;;
77544;SDS011;66672;50.328;7.610;2023-08-06T04:05:48;4.18;;;2.28;;
77544;SDS011;66672;50.328;7.610;2023-08-06T04:08:13;5.75;;;2.30;;
77544;SDS011;66672;50.328;7.610;2023-08-06T04:10:38;5.70;;;2.10;;
77544;SDS011;66672;50.328;7.610;2023-08-06T04:13:03;6.18;;;2.30;;
77544;SDS011;66672;50.328;7.610;2023-08-06T04:15:28;5.40;;;2.17;;
77544;SDS011;66672;50.328;7.610;2023-08-06T04:17:53;3.78;;;2.00;;
77544;SDS011;66672;50.328;7.610;2023-08-06T04:20:20;4.38;;;2.38;;
77544;SDS011;66672;50.328;7.610;2023-08-06T04:22:46;3.67;;;2.00;;
77544;SDS011;66672;50.328;7.610;2023-08-06T04:25:11;4.65;;;1.80;;
77544;SDS011;66672;50.328;7.610;2023-08-06T04:27:36;6.68;;;2.38;;
77544;SDS011;66672;50.328;7.610;2023-08-06T04:30:06;6.20;;;1.95;;
77544;SDS011;66672;50.328;7.610;2023-08-06T04:32:31;5.38;;;1.60;;
77544;SDS011;66672;50.328;7.610;2023-08-06T04:34:56;5.53;;;1.85;;
77544;SDS011;66672;50.328;7.610;2023-08-06T04:37:22;6.68;;;1.70;;
77544;SDS011;66672;50.328;7.610;2023-08-06T04:39:47;3.72;;;1.38;;
77544;SDS011;66672;50.328;7.610;2023-08-06T04:42:12;2.83;;;1.60;;
77544;SDS011;66672;50.328;7.610;2023-08-06T04:44:37;5.22;;;1.60;;
77544;SDS011;66672;50.328;7.610;2023-08-06T04:47:02;4.55;;;1.50;;
77544;SDS011;66672;50.328;7.610;2023-08-06T04:49:28;3.60;;;1.52;;
77544;SDS011;66672;50.328;7.610;2023-08-06T04:51:53;3.05;;;1.30;;
77544;SDS011;66672;50.328;7.610;2023-08-06T04:54:18;3.40;;;1.33;;
77544;SDS011;66672;50.328;7.610;2023-08-06T04:56:43;3.63;;;1.30;;
77544;SDS011;66672;50.328;7.610;2023-08-06T04:59:08;4.80;;;2.25;;
77544;SDS011;66672;50.328;7.610;2023-08-06T05:01:33;2.65;;;1.10;;
77544;SDS011;66672;50.328;7.610;2023-08-06T05:03:59;3.08;;;0.90;;
77544;SDS011;66672;50.328;7.610;2023-08-06T05:06:24;2.83;;;0.98;;
77544;SDS011;66672;50.328;7.610;2023-08-06T05:08:49;2.63;;;1.10;;
77544;SDS011;66672;50.328;7.610;2023-08-06T05:11:14;3.20;;;1.00;;
77544;SDS011;66672;50.328;7.610;2023-08-06T05:13:39;3.38;;;1.08;;
77544;SDS011;66672;50.328;7.610;2023-08-06T05:16:05;2.00;;;0.98;;
77544;SDS011;66672;50.328;7.610;2023-08-06T05:18:30;3.60;;;1.13;;
77544;SDS011;66672;50.328;7.610;2023-08-06T05:20:55;2.55;;;0.80;;
77544;SDS011;66672;50.328;7.610;2023-08-06T05:23:20;2.67;;;0.80;;
77544;SDS011;66672;50.328;7.610;2023-08-06T05:25:46;2.75;;;1.00;;
77544;SDS011;66672;50.328;7.610;2023-08-06T05:28:11;2.35;;;0.80;;
77544;SDS011;66672;50.328;7.610;2023-08-06T05:30:42;3.35;;;0.95;;
77544;SDS011;66672;50.328;7.610;2023-08-06T05:33:07;4.13;;;0.82;;
77544;SDS011;66672;50.328;7.610;2023-08-06T05:35:33;2.13;;;0.70;;
77544;SDS011;66672;50.328;7.610;2023-08-06T05:37:58;1.55;;;0.75;;
77544;SDS011;66672;50.328;7.610;2023-08-06T05:40:23;2.10;;;0.75;;
77544;SDS011;66672;50.328;7.610;2023-08-06T05:42:50;1.75;;;0.70;;
77544;SDS011;66672;50.328;7.610;2023-08-06T05:45:15;1.55;;;0.50;;
77544;SDS011;66672;50.328;7.610;2023-08-06T05:47:40;1.45;;;0.73;;
77544;SDS011;66672;50.328;7.610;2023-08-06T05:50:06;1.58;;;0.63;;
77544;SDS011;66672;50.328;7.610;2023-08-06T05:52:31;2.47;;;0.57;;
77544;SDS011;66672;50.328;7.610;2023-08-06T05:54:56;0.82;;;0.30;;
77544;SDS011;66672;50.328;7.610;2023-08-06T05:57:21;1.02;;;0.50;;
77544;SDS011;66672;50.328;7.610;2023-08-06T05:59:47;1.17;;;0.40;;
77544;SDS011;66672;50.328;7.610;2023-08-06T06:02:12;1.30;;;0.43;;
77544;SDS011;66672;50.328;7.610;2023-08-06T06:04:37;1.98;;;0.63;;
77544;SDS011;66672;50.328;7.610;2023-08-06T06:07:02;1.75;;;0.50;;
77544;SDS011;66672;50.328;7.610;2023-08-06T06:09:28;0.63;;;0.30;;
77544;SDS011;66672;50.328;7.610;2023-08-06T06:11:53;0.73;;;0.28;;
77544;SDS011;66672;50.328;7.610;2023-08-06T06:14:18;0.85;;;0.20;;
77544;SDS011;66672;50.328;7.610;2023-08-06T06:16:43;1.38;;;0.35;;
77544;SDS011;66672;50.328;7.610;2023-08-06T06:19:09;0.80;;;0.40;;
77544;SDS011;66672;50.328;7.610;2023-08-06T06:21:34;0.70;;;0.30;;
77544;SDS011;66672;50.328;7.610;2023-08-06T06:23:59;1.80;;;0.40;;
77544;SDS011;66672;50.328;7.610;2023-08-06T06:26:24;0.95;;;0.40;;
77544;SDS011;66672;50.328;7.610;2023-08-06T06:28:49;1.02;;;0.40;;
77544;SDS011;66672;50.328;7.610;2023-08-06T06:31:15;1.45;;;0.60;;
77544;SDS011;66672;50.328;7.610;2023-08-06T06:33:40;1.20;;;0.43;;
77544;SDS011;66672;50.328;7.610;2023-08-06T06:36:05;1.13;;;0.73;;
77544;SDS011;66672;50.328;7.610;2023-08-06T06:38:32;0.77;;;0.30;;
77544;SDS011;66672;50.328;7.610;2023-08-06T06:40:57;2.03;;;0.32;;
77544;SDS011;66672;50.328;7.610;2023-08-06T06:43:23;1.77;;;0.20;;
77544;SDS011;66672;50.328;7.610;2023-08-06T06:45:58;1.52;;;0.40;;
77544;SDS011;66672;50.328;7.610;2023-08-06T06:48:24;1.58;;;0.50;;
77544;SDS011;66672;50.328;7.610;2023-08-06T06:50:49;0.88;;;0.40;;
77544;SDS011;66672;50.328;7.610;2023-08-06T06:53:15;1.38;;;0.50;;
77544;SDS011;66672;50.328;7.610;2023-08-06T06:55:40;0.82;;;0.30;;
77544;SDS011;66672;50.328;7.610;2023-08-06T06:58:05;1.50;;;0.50;;
77544;SDS011;66672;50.328;7.610;2023-08-06T07:00:30;1.08;;;0.40;;
77544;SDS011;66672;50.328;7.610;2023-08-06T07:02:55;0.75;;;0.30;;
77544;SDS011;66672;50.328;7.610;2023-08-06T07:05:20;1.55;;;0.15;;
77544;SDS011;66672;50.328;7.610;2023-08-06T07:07:46;0.82;;;0.10;;
77544;SDS011;66672;50.328;7.610;2023-08-06T07:10:11;0.55;;;0.30;;
77544;SDS011;66672;50.328;7.610;2023-08-06T07:12:36;0.80;;;0.30;;
77544;SDS011;66672;50.328;7.610;2023-08-06T07:15:03;0.47;;;0.30;;
77544;SDS011;66672;50.328;7.610;2023-08-06T07:17:28;0.98;;;0.30;;
77544;SDS011;66672;50.328;7.610;2023-08-06T07:19:53;0.88;;;0.30;;
77544;SDS011;66672;50.328;7.610;2023-08-06T07:22:18;1.30;;;0.30;;
77544;SDS011;66672;50.328;7.610;2023-08-06T07:24:43;1.30;;;0.30;;
77544;SDS011;66672;50.328;7.610;2023-08-06T07:27:08;1.02;;;0.30;;
77544;SDS011;66672;50.328;7.610;2023-08-06T07:29:34;0.50;;;0.30;;
77544;SDS011;66672;50.328;7.610;2023-08-06T07:31:59;1.42;;;0.30;;
77544;SDS011;66672;50.328;7.610;2023-08-06T07:34:24;0.50;;;0.30;;
77544;SDS011;66672;50.328;7.610;2023-08-06T07:36:50;1.50;;;0.40;;
77544;SDS011;66672;50.328;7.610;2023-08-06T07:39:15;2.00;;;0.57;;
77544;SDS011;66672;50.328;7.610;2023-08-06T07:41:41;2.85;;;0.40;;
77544;SDS011;66672;50.328;7.610;2023-08-06T07:44:06;0.30;;;0.30;;
77544;SDS011;66672;50.328;7.610;2023-08-06T07:46:32;1.27;;;0.38;;
77544;SDS011;66672;50.328;7.610;2023-08-06T07:48:57;1.38;;;0.63;;
77544;SDS011;66672;50.328;7.610;2023-08-06T07:51:22;0.30;;;0.30;;
77544;SDS011;66672;50.328;7.610;2023-08-06T07:53:47;3.05;;;0.40;;
77544;SDS011;66672;50.328;7.610;2023-08-06T07:56:12;1.40;;;0.50;;
77544;SDS011;66672;50.328;7.610;2023-08-06T07:58:37;1.40;;;0.43;;
77544;SDS011;66672;50.328;7.610;2023-08-06T08:01:03;1.77;;;0.50;;
77544;SDS011;66672;50.328;7.610;2023-08-06T08:03:28;1.10;;;0.40;;
77544;SDS011;66672;50.328;7.610;2023-08-06T08:05:54;1.33;;;0.40;;
77544;SDS011;66672;50.328;7.610;2023-08-06T08:08:21;1.95;;;0.60;;
77544;SDS011;66672;50.328;7.610;2023-08-06T08:10:46;0.60;;;0.32;;
77544;SDS011;66672;50.328;7.610;2023-08-06T08:13:11;1.02;;;0.40;;
77544;SDS011;66672;50.328;7.610;2023-08-06T08:15:36;1.38;;;0.50;;
77544;SDS011;66672;50.328;7.610;2023-08-06T08:18:01;0.55;;;0.30;;
77544;SDS011;66672;50.328;7.610;2023-08-06T08:20:27;0.70;;;0.40;;
77544;SDS011;66672;50.328;7.610;2023-08-06T08:23:00;1.58;;;0.40;;
77544;SDS011;66672;50.328;7.610;2023-08-06T08:25:25;0.98;;;0.38;;
77544;SDS011;66672;50.328;7.610;2023-08-06T08:27:51;3.55;;;0.35;;
77544;SDS011;66672;50.328;7.610;2023-08-06T08:30:16;1.00;;;0.45;;
77544;SDS011;66672;50.328;7.610;2023-08-06T08:32:42;0.82;;;0.35;;
77544;SDS011;66672;50.328;7.610;2023-08-06T08:35:07;2.67;;;0.30;;
77544;SDS011;66672;50.328;7.610;2023-08-06T08:37:32;0.95;;;0.40;;
77544;SDS011;66672;50.328;7.610;2023-08-06T08:39:57;0.47;;;0.30;;
77544;SDS011;66672;50.328;7.610;2023-08-06T08:42:22;1.13;;;0.30;;
77544;SDS011;66672;50.328;7.610;2023-08-06T08:44:48;0.80;;;0.38;;
77544;SDS011;66672;50.328;7.610;2023-08-06T08:47:13;0.30;;;0.30;;
77544;SDS011;66672;50.328;7.610;2023-08-06T08:49:41;0.73;;;0.30;;
77544;SDS011;66672;50.328;7.610;2023-08-06T08:52:07;24.73;;;13.10;;
77544;SDS011;66672;50.328;7.610;2023-08-06T08:54:38;0.32;;;0.20;;
77544;SDS011;66672;50.328;7.610;2023-08-06T08:57:04;0.43;;;0.20;;
77544;SDS011;66672;50.328;7.610;2023-08-06T08:59:29;0.68;;;0.25;;
77544;SDS011;66672;50.328;7.610;2023-08-06T09:01:54;1.15;;;0.43;;
77544;SDS011;66672;50.328;7.610;2023-08-06T09:04:20;0.68;;;0.17;;
77544;SDS011;66672;50.328;7.610;2023-08-06T09:06:52;0.60;;;0.25;;
77544;SDS011;66672;50.328;7.610;2023-08-06T09:09:22;0.55;;;0.10;;
77544;SDS011;66672;50.328;7.610;2023-08-06T09:11:50;0.63;;;0.25;;
77544;SDS011;66672;50.328;7.610;2023-08-06T09:14:15;1.55;;;0.45;;
77544;SDS011;66672;50.328;7.610;2023-08-06T09:16:41;1.55;;;0.70;;
77544;SDS011;66672;50.328;7.610;2023-08-06T09:19:09;1.35;;;0.40;;
77544;SDS011;66672;50.328;7.610;2023-08-06T09:21:38;0.47;;;0.40;;
77544;SDS011;66672;50.328;7.610;2023-08-06T09:24:07;0.50;;;0.30;;
77544;SDS011;66672;50.328;7.610;2023-08-06T09:26:33;2.58;;;0.20;;
77544;SDS011;66672;50.328;7.610;2023-08-06T09:28:59;0.77;;;0.40;;
77544;SDS011;66672;50.328;7.610;2023-08-06T09:31:24;0.85;;;0.40;;
77544;SDS011;66672;50.328;7.610;2023-08-06T09:33:49;0.47;;;0.35;;
77544;SDS011;66672;50.328;7.610;2023-08-06T09:36:14;0.50;;;0.40;;
77544;SDS011;66672;50.328;7.610;2023-08-06T09:38:40;4.03;;;0.82;;
77544;SDS011;66672;50.328;7.610;2023-08-06T09:41:06;1.73;;;0.98;;
77544;SDS011;66672;50.328;7.610;2023-08-06T09:43:39;0.90;;;0.50;;
77544;SDS011;66672;50.328;7.610;2023-08-06T09:46:10;1.58;;;0.60;;
77544;SDS011;66672;50.328;7.610;2023-08-06T09:48:35;2.25;;;0.90;;
77544;SDS011;66672;50.328;7.610;2023-08-06T09:51:00;1.70;;;0.52;;
77544;SDS011;66672;50.328;7.610;2023-08-06T09:53:26;0.65;;;0.40;;
77544;SDS011;66672;50.328;7.610;2023-08-06T09:55:52;1.63;;;1.05;;
77544;SDS011;66672;50.328;7.610;2023-08-06T09:58:17;1.95;;;0.70;;
77544;SDS011;66672;50.328;7.610;2023-08-06T10:00:42;2.53;;;0.65;;
77544;SDS011;66672;50.328;7.610;2023-08-06T10:03:07;1.30;;;0.60;;
77544;SDS011;66672;50.328;7.610;2023-08-06T10:05:34;2.30;;;0.90;;
77544;SDS011;66672;50.328;7.610;2023-08-06T10:07:59;3.58;;;1.50;;
77544;SDS011;66672;50.328;7.610;2023-08-06T10:10:25;1.73;;;0.90;;
77544;SDS011;66672;50.328;7.610;2023-08-06T10:12:52;1.60;;;0.80;;
77544;SDS011;66672;50.328;7.610;2023-08-06T10:15:21;1.70;;;0.50;;
77544;SDS011;66672;50.328;7.610;2023-08-06T10:17:47;0.80;;;0.32;;
77544;SDS011;66672;50.328;7.610;2023-08-06T10:20:13;1.65;;;0.50;;
77544;SDS011;66672;50.328;7.610;2023-08-06T10:22:42;4.53;;;1.23;;
77544;SDS011;66672;50.328;7.610;2023-08-06T10:25:08;1.27;;;0.50;;
77544;SDS011;66672;50.328;7.610;2023-08-06T10:27:40;1.02;;;0.40;;
77544;SDS011;66672;50.328;7.610;2023-08-06T10:30:24;0.50;;;0.30;;
77544;SDS011;66672;50.328;7.610;2023-08-06T10:32:54;1.13;;;0.40;;
77544;SDS011;66672;50.328;7.610;2023-08-06T10:38:03;1.77;;;0.47;;
77544;SDS011;66672;50.328;7.610;2023-08-06T10:40:29;1.08;;;0.30;;
77544;SDS011;66672;50.328;7.610;2023-08-06T10:42:58;0.85;;;0.20;;
77544;SDS011;66672;50.328;7.610;2023-08-06T10:45:23;2.05;;;0.50;;
77544;SDS011;66672;50.328;7.610;2023-08-06T10:47:53;0.88;;;0.40;;
77544;SDS011;66672;50.328;7.610;2023-08-06T10:50:18;1.00;;;0.50;;
77544;SDS011;66672;50.328;7.610;2023-08-06T10:52:44;3.20;;;0.65;;
77544;SDS011;66672;50.328;7.610;2023-08-06T10:55:09;1.25;;;0.43;;
77544;SDS011;66672;50.328;7.610;2023-08-06T10:57:34;0.35;;;0.30;;
77544;SDS011;66672;50.328;7.610;2023-08-06T11:00:00;1.70;;;0.30;;
77544;SDS011;66672;50.328;7.610;2023-08-06T11:02:25;2.83;;;0.40;;
77544;SDS011;66672;50.328;7.610;2023-08-06T11:04:50;1.00;;;0.20;;
77544;SDS011;66672;50.328;7.610;2023-08-06T11:07:16;0.95;;;0.85;;
77544;SDS011;66672;50.328;7.610;2023-08-06T11:09:41;0.65;;;0.30;;
77544;SDS011;66672;50.328;7.610;2023-08-06T11:12:10;1.67;;;0.30;;
77544;SDS011;66672;50.328;7.610;2023-08-06T11:14:35;1.13;;;0.32;;
77544;SDS011;66672;50.328;7.610;2023-08-06T11:17:00;1.27;;;0.70;;
77544;SDS011;66672;50.328;7.610;2023-08-06T11:19:26;2.28;;;0.52;;
77544;SDS011;66672;50.328;7.610;2023-08-06T11:21:51;1.58;;;0.73;;
77544;SDS011;66672;50.328;7.610;2023-08-06T11:24:16;2.60;;;0.50;;
77544;SDS011;66672;50.328;7.610;2023-08-06T11:26:42;0.80;;;0.40;;
77544;SDS011;66672;50.328;7.610;2023-08-06T11:29:09;2.38;;;0.60;;
77544;SDS011;66672;50.328;7.610;2023-08-06T11:31:35;1.27;;;0.70;;
77544;SDS011;66672;50.328;7.610;2023-08-06T11:34:01;1.58;;;0.60;;
77544;SDS011;66672;50.328;7.610;2023-08-06T11:36:32;2.70;;;0.93;;
77544;SDS011;66672;50.328;7.610;2023-08-06T11:39:01;1.70;;;0.70;;
77544;SDS011;66672;50.328;7.610;2023-08-06T11:41:28;0.85;;;0.30;;
77544;SDS011;66672;50.328;7.610;2023-08-06T11:43:53;1.35;;;0.45;;
77544;SDS011;66672;50.328;7.610;2023-08-06T11:46:18;0.85;;;0.30;;
77544;SDS011;66672;50.328;7.610;2023-08-06T11:48:56;1.33;;;0.47;;
77544;SDS011;66672;50.328;7.610;2023-08-06T11:51:25;1.02;;;0.40;;
77544;SDS011;66672;50.328;7.610;2023-08-06T11:53:55;2.25;;;0.50;;
77544;SDS011;66672;50.328;7.610;2023-08-06T11:56:20;2.25;;;0.68;;
77544;SDS011;66672;50.328;7.610;2023-08-06T11:58:45;2.75;;;0.70;;
77544;SDS011;66672;50.328;7.610;2023-08-06T12:01:10;3.58;;;1.73;;
77544;SDS011;66672;50.328;7.610;2023-08-06T12:03:39;3.13;;;1.05;;
77544;SDS011;66672;50.328;7.610;2023-08-06T12:06:04;3.33;;;1.40;;
77544;SDS011;66672;50.328;7.610;2023-08-06T12:08:29;2.97;;;0.80;;
77544;SDS011;66672;50.328;7.610;2023-08-06T12:10:54;3.53;;;1.05;;
77544;SDS011;66672;50.328;7.610;2023-08-06T12:13:20;1.85;;;0.77;;
77544;SDS011;66672;50.328;7.610;2023-08-06T12:15:45;1.33;;;0.57;;
77544;SDS011;66672;50.328;7.610;2023-08-06T12:18:10;3.70;;;1.30;;
77544;SDS011;66672;50.328;7.610;2023-08-06T12:20:35;1.40;;;0.70;;
77544;SDS011;66672;50.328;7.610;2023-08-06T12:23:00;1.40;;;0.70;;
77544;SDS011;66672;50.328;7.610;2023-08-06T12:25:26;1.50;;;0.55;;
77544;SDS011;66672;50.328;7.610;2023-08-06T12:27:51;2.42;;;0.65;;
77544;SDS011;66672;50.328;7.610;2023-08-06T12:30:16;0.80;;;0.30;;
77544;SDS011;66672;50.328;7.610;2023-08-06T12:32:41;0.47;;;0.30;;
77544;SDS011;66672;50.328;7.610;2023-08-06T12:35:07;2.03;;;1.00;;
77544;SDS011;66672;50.328;7.610;2023-08-06T12:37:32;1.67;;;0.60;;
77544;SDS011;66672;50.328;7.610;2023-08-06T12:39:57;3.05;;;0.50;;
77544;SDS011;66672;50.328;7.610;2023-08-06T12:42:23;0.50;;;0.40;;
77544;SDS011;66672;50.328;7.610;2023-08-06T12:44:49;3.58;;;0.85;;
77544;SDS011;66672;50.328;7.610;2023-08-06T12:47:15;1.90;;;0.50;;
77544;SDS011;66672;50.328;7.610;2023-08-06T12:49:40;2.38;;;0.80;;
77544;SDS011;66672;50.328;7.610;2023-08-06T12:52:05;1.65;;;0.43;;
77544;SDS011;66672;50.328;7.610;2023-08-06T12:54:32;2.22;;;0.50;;
77544;SDS011;66672;50.328;7.610;2023-08-06T12:57:03;3.25;;;0.70;;
77544;SDS011;66672;50.328;7.610;2023-08-06T12:59:29;2.95;;;0.70;;
77544;SDS011;66672;50.328;7.610;2023-08-06T13:01:54;2.72;;;0.68;;
77544;SDS011;66672;50.328;7.610;2023-08-06T13:04:19;1.35;;;0.50;;
77544;SDS011;66672;50.328;7.610;2023-08-06T13:06:45;1.08;;;0.50;;
77544;SDS011;66672;50.328;7.610;2023-08-06T13:09:10;1.15;;;0.55;;
77544;SDS011;66672;50.328;7.610;2023-08-06T13:11:36;2.05;;;0.90;;
77544;SDS011;66672;50.328;7.610;2023-08-06T13:14:07;5.63;;;0.70;;
77544;SDS011;66672;50.328;7.610;2023-08-06T13:16:33;1.35;;;0.60;;
77544;SDS011;66672;50.328;7.610;2023-08-06T13:18:59;2.50;;;0.80;;
77544;SDS011;66672;50.328;7.610;2023-08-06T13:21:24;1.50;;;0.73;;
77544;SDS011;66672;50.328;7.610;2023-08-06T13:23:49;1.95;;;0.80;;
77544;SDS011;66672;50.328;7.610;2023-08-06T13:26:14;2.92;;;0.90;;
77544;SDS011;66672;50.328;7.610;2023-08-06T13:28:40;2.63;;;0.98;;
77544;SDS011;66672;50.328;7.610;2023-08-06T13:31:06;4.05;;;0.80;;
77544;SDS011;66672;50.328;7.610;2023-08-06T13:33:31;2.80;;;0.80;;
77544;SDS011;66672;50.328;7.610;2023-08-06T13:35:56;3.28;;;1.00;;
77544;SDS011;66672;50.328;7.610;2023-08-06T13:38:21;4.95;;;0.73;;
77544;SDS011;66672;50.328;7.610;2023-08-06T13:40:47;3.15;;;0.70;;
77544;SDS011;66672;50.328;7.610;2023-08-06T13:43:13;2.20;;;0.60;;
77544;SDS011;66672;50.328;7.610;2023-08-06T13:45:38;1.75;;;0.90;;
77544;SDS011;66672;50.328;7.610;2023-08-06T13:48:03;1.88;;;0.55;;
77544;SDS011;66672;50.328;7.610;2023-08-06T13:50:29;1.63;;;0.60;;
77544;SDS011;66672;50.328;7.610;2023-08-06T13:52:54;3.60;;;0.55;;
77544;SDS011;66672;50.328;7.610;2023-08-06T13:55:20;2.25;;;0.88;;
77544;SDS011;66672;50.328;7.610;2023-08-06T13:57:45;3.42;;;1.08;;
77544;SDS011;66672;50.328;7.610;2023-08-06T14:00:11;1.05;;;0.45;;
77544;SDS011;66672;50.328;7.610;2023-08-06T14:02:36;1.95;;;0.77;;
77544;SDS011;66672;50.328;7.610;2023-08-06T14:05:01;2.53;;;0.75;;
77544;SDS011;66672;50.328;7.610;2023-08-06T14:07:26;0.70;;;0.25;;
77544;SDS011;66672;50.328;7.610;2023-08-06T14:09:51;1.38;;;0.20;;
77544;SDS011;66672;50.328;7.610;2023-08-06T14:12:17;0.40;;;0.20;;
77544;SDS011;66672;50.328;7.610;2023-08-06T14:14:42;1.77;;;0.30;;
77544;SDS011;66672;50.328;7.610;2023-08-06T14:17:08;2.08;;;0.25;;
77544;SDS011;66672;50.328;7.610;2023-08-06T14:19:33;0.73;;;0.32;;
77544;SDS011;66672;50.328;7.610;2023-08-06T14:21:58;1.05;;;0.40;;
77544;SDS011;66672;50.328;7.610;2023-08-06T14:24:23;3.20;;;1.42;;
77544;SDS011;66672;50.328;7.610;2023-08-06T14:26:48;1.35;;;0.43;;
77544;SDS011;66672;50.328;7.610;2023-08-06T14:29:14;1.05;;;0.45;;
77544;SDS011;66672;50.328;7.610;2023-08-06T14:31:39;1.00;;;0.45;;
77544;SDS011;66672;50.328;7.610;2023-08-06T14:34:04;1.00;;;0.43;;
77544;SDS011;66672;50.328;7.610;2023-08-06T14:36:30;1.63;;;0.75;;
77544;SDS011;66672;50.328;7.610;2023-08-06T14:38:55;1.58;;;0.60;;
77544;SDS011;66672;50.328;7.610;2023-08-06T14:41:20;1.67;;;0.55;;
77544;SDS011;66672;50.328;7.610;2023-08-06T14:43:46;1.35;;;0.60;;
77544;SDS011;66672;50.328;7.610;2023-08-06T14:46:11;12.82;;;6.65;;